AirNav   Bose Proflight aviation headeet
 
 293 users online  

KMPI Mariposa-Yosemite Airport
Mariposa, California, USA

GOING TO MARIPOSA?


FAA INFORMATION EFFECTIVE 03 JANUARY 2019

Location

FAA Identifier: MPI
Lat/Long: 37-30-39.1000N / 120-02-22.3000W
37-30.651667N / 120-02.371667W
37.5108611 / -120.0395278
(estimated)
Elevation: 2254.2 ft. / 687.1 m (surveyed)
Variation: 15E (1985)
From city: 4 miles W of MARIPOSA, CA
Time zone: UTC -8 (UTC -7 during Daylight Saving Time)
Zip code: 95338

Airport Operations

Airport use: Open to the public
Activation date: 04/1940
Control tower: no
ARTCC: OAKLAND CENTER
FSS: RANCHO MURIETA FLIGHT SERVICE STATION
NOTAMs facility: RIU (NOTAM-D service available)
Attendance: MON-FRI 1000-1600
Wind indicator: lighted
Segmented circle: yes
Lights: ACTVT PAPI RWY 08 & 26; MIRL RWY 08/26 - CTAF.
Beacon: white-green (lighted land airport)
Operates sunset to sunrise.

Airport Communications

CTAF/UNICOM: 122.7
WX AWOS-3: 135.6 (209-966-2912)
  • APCH/DEP SVC PROVIDED BY OAKLAND ARTCC FREQ 121.25/327.0 (ANGEL'S CAMP RCAG).

Nearby radio navigation aids

VOR radial/distance  VOR name  Freq  Var
HYPr030/24.5EL NIDO VOR/DME114.2015E
FRAr302/32.3FRIANT VORTAC115.6017E
CZQr329/39.1CLOVIS VORTAC112.9015E

Airport Services

Fuel available: 100LL JET-A
FUEL AVBL 24 HRS WITH CREDIT CARD.
Parking: tiedowns
Airframe service: MINOR
Powerplant service: MAJOR
Bottled oxygen: NONE
Bulk oxygen: NONE

Runway Information

Runway 8/26

Dimensions: 3305 x 60 ft. / 1007 x 18 m
Surface: asphalt, in excellent condition
Weight bearing capacity: 
Single wheel: 12.0
Runway edge lights: medium intensity
RUNWAY 8  RUNWAY 26
Latitude: 37-30.698043N37-30.606395N
Longitude: 120-02.709322W120-02.035483W
Elevation: 2254.2 ft.2222.9 ft.
Gradient: 1.1%0.9% UP
Traffic pattern: rightleft
Runway heading: 085 magnetic, 100 true265 magnetic, 280 true
Markings: nonprecision, in good conditionnonprecision, in good condition
Visual slope indicator: 2-light PAPI on left (4.00 degrees glide path)2-light PAPI on left (4.50 degrees glide path)
Runway end identifier lights: nono
Touchdown point: yes, no lightsyes, no lights
Obstructions: 45 ft. tree, 1340 ft. from runway, 130 ft. right of centerline, 25:1 slope to clear29 ft. tree, 762 ft. from runway, 83 ft. left of centerline, 20:1 slope to clear

Airport Ownership and Management from official FAA records

Ownership: Publicly-owned
Owner: COUNTY OF MARIPOSA
4639 BEN HUR ROAD
MARIPOSA, CA 95338
Phone 209-966-5356
Manager: ANTHONY BORRESON
5020 MACREADY WAY
MARIPOSA, CA 95338
Phone (209) 966-2143
WWW.YOSEMITEAVIATION.COM

Airport Operational Statistics

Aircraft based on the field: 25
Single engine airplanes: 21
Multi engine airplanes: 4
    
Aircraft operations: avg 25/day *
66% local general aviation
33% transient general aviation
1% air taxi
* for 12-month period ending 24 April 2018

Additional Remarks

TRANSITIONAL SURFACE OBSTRUCTION: MOUNTAINS TO NORTH OF RWY 08/26.
RY 08 TERRAIN DROPS ALONG BOTH SIDES OF TWY 45 FT FM RY EDGE.
BIRDS ON AND INVOF ARPT.

Instrument Procedures

NOTE: All procedures below are presented as PDF files. If you need a reader for these files, you should download the free Adobe Reader.

NOT FOR NAVIGATION. Please procure official charts for flight.
FAA instrument procedures published for use from 3 January 2019 at 0901Z to 31 January 2019 at 0900Z.

 
IAPs - Instrument Approach Procedures
RNAV (GPS)-A   download (231KB)
RNAV (GPS)-B   download (238KB)
NOTE: Special Take-Off Minimums/Departure Procedures apply   download (128KB)

Other nearby airports with instrument procedures:

E45 - Pine Mountain Lake Airport (22 nm N)
KMCE - Merced Regional Airport/Macready Field (26 nm SW)
KMER - Castle Airport (26 nm W)
KMAE - Madera Municipal Airport (32 nm S)
O22 - Columbia Airport (36 nm NW)
 
Loc | Ops | Rwys | IFR | FBO | Links
Com | Nav | Svcs | Stats | Notes
Area around KMPI (Mariposa-Yosemite Airport)
 
Road maps at: MapQuest Bing Google
 
Aerial photo
WARNING: Photo may not be current or correct
Aerial photo of KMPI (Mariposa-Yosemite Airport)
Photo by David Newcomer
Photo taken 27-Oct-2014
from 2,000 AGL looking northeast.

Do you have a better or more recent aerial photo of Mariposa-Yosemite Airport that you would like to share? If so, please send us your photo.

 
Sectional chart

 
Airport distance calculator
Flying to Mariposa-Yosemite Airport? Find the distance to fly.

From to KMPI

Sunrise and sunset
Times for 19-Jan-2019
 Local
(UTC-8)
 Zulu
(UTC)
Morning civil twilight06:4514:45
Sunrise07:1315:13
Sunset17:0901:09
Evening civil twilight17:3701:37

Current date and time
Zulu (UTC)  19-Jan-2019 09:39:48
Local (UTC-8)  19-Jan-2019 01:39:48
 
METAR
KMCE 
26nm SW 
190853Z AUTO 09003KT 10SM OVC100 11/09 A3038 RMK AO2 SLP288 T01060094 50006
KMER 
26nm W 
190915Z AUTO 00000KT 9SM OVC085 11/11 A3039 RMK AO1
KMAE 
32nm S 
190853Z AUTO 09004KT 10SM BKN100 10/07 A3040 RMK AO2 SLP293 T01000072 50007
KO22 
36nm NW 
190915Z AUTO 00000KT 10SM SCT046 OVC060 09/09 A3039 RMK A01
KMOD 
44nm W 
190853Z AUTO 00000KT 10SM OVC050 11/10 A3038 RMK AO2 SLP289 T01110100 51009
KFAT 
46nm S 
190853Z 07003KT 10SM BKN200 09/08 A3041 RMK AO2 SLP295 T00940078 51009
KCPU 
48nm NW 
190910Z AUTO 00000KT 10SM SCT048 OVC065 10/08 A3039 RMK AO2 T00950077
KFCH 
49nm S 
182215Z AUTO 28006KT 10SM CLR 17/10 A3029 RMK A01
TAF
KMCE 
26nm SW 
190804Z 1908/2006 09002KT P6SM OVC100 FM191200 13002KT 5SM BR SCT001 BKN100 TEMPO 1913/1917 1/4SM FG BKN001 OVC100 FM191800 11002KT P6SM FEW001 SCT100
KMER 
26nm W 
190807Z 1908/2006 13003KT P6SM BKN100 FM191200 13002KT 5SM BR FEW001 SCT100 TEMPO 1913/1917 1/4SM FG BKN001 BKN100 FM191800 11002KT P6SM FEW100
NOTAMs
Click for the latest NOTAMs
NOTAMs are issued by the DoD/FAA and will open in a separate window not controlled by AirNav.

 

 
 

FBO, Fuel Providers, and Aircraft Ground Support

  
 Business Name 
 
 Contact 
 
 Services / Description 
 
Fuel Prices
 
Comments
  
 Airborrn Aviation Services, LLC
209-966-2143
[web site]
[email]
Airport management, Aviation fuel, Aircraft parking (ramp or tiedown), Hangars, Flight training, Aircraft rental, Aerial tours / aerial sightseeing, Aerial photography, ...

More info about Airborrn Aviation Services, LLC
Shell
100LL Jet A
AS --- $4.50 
SS $4.35 --- 
 Updated 18-Jan-2019
 
   4 read write
AS=Assisted/Self Service
SS=Self service
Update Fuel Prices
 

Getting Around: Taxi, Limo, Rental Cars, Mass Transit

  
 Business Name 
 
 Contact 
 
Services / Description
 
Comments
  
YARTS [web site]
no information available

If you are affiliated with YARTS and would like to show here your services, contact info, web link, logo, and more, click here
 
   write
 

Would you like to see your business listed on this page?

 If your business provides an interesting product or service to pilots, flight crews, aircraft, or users of the Mariposa-Yosemite Airport, you should consider listing it here.  To start the listing process, click on the button below
 
Add a business
 

Other Pages about Mariposa-Yosemite Airport

www.mariposayosemiteairport.com
 
Update a link
 
Copyright © AirNav, LLC. All rights reserved. Privacy Policy  Contact